Time;durP1;ratioP1;P1;durP2;ratioP2;P2;SDS_P1;SDS_P2;PMS_P1;PMS_P2;Temp;Humidity;BMP_temperature;BMP_pressure;BME280_temperature;BME280_humidity;BME280_pressure;Samples;Min_cycle;Max_cycle;Signal;HPM_P1;HPM_P2
2022/10/14 00:01:05;;;;;;;;;;;;;;;27.10;53.59;101465.19;5003900;28;687;-83
2022/10/14 00:03:33;;;;;;;;;;;;;;;27.15;52.96;101460.72;5004744;28;2602;-82
2022/10/14 00:06:03;;;;;;;;;;;;;;;27.09;53.14;101457.97;5006109;28;784;-83
2022/10/14 00:08:29;;;;;;;;;;;;;;;27.16;53.17;101458.81;5005144;28;866;-83
2022/10/14 00:10:55;;;;;;;;;;;;;;;27.26;52.93;101448.16;5006159;28;803;-83
2022/10/14 00:13:21;;;;;;;;;;;;;;;27.26;52.12;101456.44;5005484;28;1210;-83
2022/10/14 00:15:47;;;;;;;;;;;;;;;27.25;51.97;101453.91;5000837;28;1150;-83
2022/10/14 00:18:13;;;;;;;;;;;;;;;27.24;52.59;101453.06;4984442;28;1895;-83
2022/10/14 00:20:39;;;;;;;;;;;;;;;27.26;52.16;101455.59;4986779;28;718;-83
2022/10/14 00:23:04;;;;;;;;;;;;;;;26.96;52.68;101456.09;4986158;28;1228;-82
2022/10/14 00:25:30;;;;;;;;;;;;;;;27.06;52.84;101453.75;4986530;28;804;-83
2022/10/14 00:27:56;;;;;;;;;;;;;;;26.80;53.75;101457.41;4986480;28;755;-83
2022/10/14 00:30:22;;;;;;;;;;;;;;;27.00;53.09;101454.59;4986374;28;837;-83
2022/10/14 00:32:48;;;;;;;;;;;;;;;27.18;52.91;101453.06;4985064;28;1295;-83
2022/10/14 00:35:14;;;;;;;;;;;;;;;26.99;52.97;101457.56;4986833;28;1211;-83
2022/10/14 00:37:40;;;;;;;;;;;;;;;26.96;53.32;101450.59;4989505;28;1953;-83
2022/10/14 00:40:07;;;;;;;;;;;;;;;26.98;53.32;101448.47;4989318;28;2320;-83
2022/10/14 00:42:33;;;;;;;;;;;;;;;27.13;53.15;101451.81;5008232;28;1213;-83
2022/10/14 00:45:04;;;;;;;;;;;;;;;27.10;52.48;101451.41;5007670;28;793;-83
2022/10/14 00:47:30;;;;;;;;;;;;;;;27.23;52.14;101451.34;5006243;28;1154;-83
2022/10/14 00:49:58;;;;;;;;;;;;;;;27.17;52.33;101448.63;5005791;28;895;-83
2022/10/14 00:52:24;;;;;;;;;;;;;;;27.17;52.28;101448.63;5007461;28;1306;-83
2022/10/14 00:54:55;;;;;;;;;;;;;;;27.21;52.31;101452.63;5009606;28;883;-83
2022/10/14 00:57:23;;;;;;;;;;;;;;;26.72;54.07;101446.63;5009441;28;533;-83
2022/10/14 00:59:51;;;;;;;;;;;;;;;26.65;54.44;101444.97;5008960;28;1894;-83
2022/10/14 01:02:17;;;;;;;;;;;;;;;26.74;54.60;101449.16;5007144;28;1231;-83
2022/10/14 01:04:44;;;;;;;;;;;;;;;26.79;54.61;101446.59;5007911;28;907;-83
2022/10/14 01:07:31;;;;;;;;;;;;;;;26.75;54.29;101445.38;5009416;28;904;-83
2022/10/14 01:10:09;;;;;;;;;;;;;;;26.70;54.68;101459.75;5009516;28;880;-83
2022/10/14 01:12:54;;;;;;;;;;;;;;;26.69;54.97;101444.31;5007900;28;1225;-83
2022/10/14 01:15:30;;;;;;;;;;;;;;;26.57;54.35;101454.28;5009997;28;517;-82
2022/10/14 01:18:32;;;;;;;;;;;;;;;26.63;55.04;101449.81;5009812;28;1870;-83
2022/10/14 01:21:11;;;;;;;;;;;;;;;26.70;54.44;101439.66;5009504;28;529;-83
2022/10/14 01:24:04;;;;;;;;;;;;;;;26.63;55.08;101445.16;5009095;28;1358;-83
2022/10/14 01:26:55;;;;;;;;;;;;;;;26.54;55.91;101444.53;5010215;28;947;-83
2022/10/14 01:29:52;;;;;;;;;;;;;;;26.30;56.53;101443.25;5008323;28;2419;-83
2022/10/14 01:32:26;;;;;;;;;;;;;;;25.88;57.49;101446.44;5009267;28;1212;-83
2022/10/14 01:34:57;;;;;;;;;;;;;;;26.37;55.81;101436.94;5024576;28;2656;-83
2022/10/14 01:37:26;;;;;;;;;;;;;;;26.11;56.97;101430.38;5024736;28;903;-83
2022/10/14 01:40:07;;;;;;;;;;;;;;;26.14;57.30;101434.59;5024707;28;1898;-83
2022/10/14 01:42:37;;;;;;;;;;;;;;;26.19;57.15;101427.41;5009651;28;1299;-83
2022/10/14 01:45:12;;;;;;;;;;;;;;;26.20;56.88;101429.09;5010425;28;580;-83
2022/10/14 01:47:39;;;;;;;;;;;;;;;26.46;55.94;101421.91;5009873;28;2677;-83
2022/10/14 01:50:14;;;;;;;;;;;;;;;26.51;55.27;101413.84;5010468;28;723;-83
2022/10/14 01:52:47;;;;;;;;;;;;;;;26.66;54.38;101413.63;5023432;28;1647;-84
2022/10/14 01:55:18;;;;;;;;;;;;;;;26.07;56.79;101423.59;5009937;28;533;-83
2022/10/14 01:57:47;;;;;;;;;;;;;;;25.79;57.84;101426.53;5025087;28;805;-83
2022/10/14 02:00:13;;;;;;;;;;;;;;;25.84;58.13;101423.16;5009033;28;1891;-83
2022/10/14 02:02:40;;;;;;;;;;;;;;;26.05;57.93;101419.34;5006955;28;2750;-83
2022/10/14 02:05:15;;;;;;;;;;;;;;;26.09;57.86;101418.75;5020540;28;2948;-84
2022/10/14 02:07:50;;;;;;;;;;;;;;;26.06;57.22;101413.66;5010002;28;596;-84
2022/10/14 02:10:36;;;;;;;;;;;;;;;26.19;57.10;101418.31;5009185;28;2641;-83
2022/10/14 02:13:08;;;;;;;;;;;;;;;26.36;56.75;101419.56;5007516;28;1265;-83
2022/10/14 02:15:53;;;;;;;;;;;;;;;26.39;56.43;101410.91;5008104;28;831;-83
2022/10/14 02:18:37;;;;;;;;;;;;;;;26.39;56.75;101410.06;5007674;28;2690;-83
2022/10/14 02:21:16;;;;;;;;;;;;;;;26.42;56.70;101409.63;5009399;28;851;-83
2022/10/14 02:23:52;;;;;;;;;;;;;;;26.68;55.46;101409.59;5024368;28;2590;-83
2022/10/14 02:26:19;;;;;;;;;;;;;;;26.88;54.35;101407.63;5009108;28;584;-83
2022/10/14 02:28:47;;;;;;;;;;;;;;;26.87;53.52;101403.16;5008527;28;812;-84
2022/10/14 02:31:16;;;;;;;;;;;;;;;26.59;54.51;101399.88;5008694;28;880;-82
2022/10/14 02:33:47;;;;;;;;;;;;;;;26.38;54.99;101392.72;5009090;28;915;-83
2022/10/14 02:36:17;;;;;;;;;;;;;;;26.43;55.27;101395.66;5008638;28;2645;-83
2022/10/14 02:38:46;;;;;;;;;;;;;;;26.47;55.94;101391.44;5009066;28;1985;-83
2022/10/14 02:41:16;;;;;;;;;;;;;;;26.31;56.82;101392.69;5008860;28;804;-83
2022/10/14 02:43:43;;;;;;;;;;;;;;;26.41;56.38;101391.44;5009030;28;549;-83
2022/10/14 02:46:09;;;;;;;;;;;;;;;26.43;56.64;101389.31;5003324;28;1177;-83
2022/10/14 02:48:36;;;;;;;;;;;;;;;26.64;55.40;101394.56;4989712;28;738;-83
2022/10/14 02:51:02;;;;;;;;;;;;;;;26.38;56.44;101386.38;4989062;28;741;-84
2022/10/14 02:53:28;;;;;;;;;;;;;;;26.28;56.60;101387.63;4988629;28;1207;-83
2022/10/14 02:55:54;;;;;;;;;;;;;;;26.42;56.63;101395.88;4989059;28;962;-83
2022/10/14 02:58:20;;;;;;;;;;;;;;;26.36;56.44;101382.97;4988051;28;1867;-84
2022/10/14 03:00:48;;;;;;;;;;;;;;;26.31;56.48;101387.19;4989115;28;832;-83
2022/10/14 03:03:14;;;;;;;;;;;;;;;26.28;57.10;101392.28;4988513;28;1191;-83
2022/10/14 03:05:42;;;;;;;;;;;;;;;26.23;57.62;101383.81;4988457;28;951;-84
2022/10/14 03:08:07;;;;;;;;;;;;;;;26.29;57.00;101377.47;4987198;28;817;-83
2022/10/14 03:10:33;;;;;;;;;;;;;;;26.10;58.18;101379.19;4988472;28;1353;-83
2022/10/14 03:12:59;;;;;;;;;;;;;;;26.30;57.09;101370.91;5003196;28;2373;-83
2022/10/14 03:15:25;;;;;;;;;;;;;;;26.41;56.58;101370.28;5003500;28;878;-83
2022/10/14 03:17:51;;;;;;;;;;;;;;;26.34;56.99;101369.41;5007343;28;1138;-83
2022/10/14 03:20:17;;;;;;;;;;;;;;;26.23;57.31;101361.81;5007497;28;1891;-83
2022/10/14 03:22:43;;;;;;;;;;;;;;;26.43;56.50;101370.91;5007766;28;1219;-83
2022/10/14 03:25:10;;;;;;;;;;;;;;;26.44;56.01;101371.75;5007524;28;729;-83
2022/10/14 03:27:36;;;;;;;;;;;;;;;26.48;55.91;101367.53;5007513;28;895;-83
2022/10/14 03:30:03;;;;;;;;;;;;;;;26.19;56.28;101379.81;5008028;28;910;-83
2022/10/14 03:32:29;;;;;;;;;;;;;;;25.91;57.40;101380.88;5007101;28;1260;-83
2022/10/14 03:34:55;;;;;;;;;;;;;;;25.89;58.34;101379.41;5007485;28;752;-83
2022/10/14 03:37:21;;;;;;;;;;;;;;;25.52;59.26;101383.56;5008087;28;949;-83
2022/10/14 03:39:47;;;;;;;;;;;;;;;25.61;59.65;101387.81;5007411;28;1953;-83
2022/10/14 03:42:13;;;;;;;;;;;;;;;25.77;58.92;101379.19;5022924;28;1304;-83
2022/10/14 03:44:38;;;;;;;;;;;;;;;26.08;58.27;101380.47;5007649;28;855;-83
2022/10/14 03:47:04;;;;;;;;;;;;;;;26.00;58.42;101384.25;5008357;28;741;-83
2022/10/14 03:49:30;;;;;;;;;;;;;;;25.77;58.40;101379.19;5008199;28;836;-83
2022/10/14 03:51:57;;;;;;;;;;;;;;;25.70;58.95;101381.94;5006936;28;1218;-84
2022/10/14 03:54:22;;;;;;;;;;;;;;;25.84;59.25;101380.03;5007790;28;815;-83
2022/10/14 03:56:49;;;;;;;;;;;;;;;25.69;60.19;101382.09;5007364;28;902;-83
2022/10/14 03:59:15;;;;;;;;;;;;;;;25.70;60.61;101386.56;5007723;28;1876;-83
2022/10/14 04:01:41;;;;;;;;;;;;;;;25.89;59.84;101372.00;5006756;28;1200;-84
2022/10/14 04:04:07;;;;;;;;;;;;;;;25.94;58.76;101379.59;5008006;28;593;-83
2022/10/14 04:06:33;;;;;;;;;;;;;;;26.06;59.22;101371.59;5006188;28;988;-83
2022/10/14 04:08:59;;;;;;;;;;;;;;;25.98;58.42;101375.38;5005494;28;903;-83
2022/10/14 04:11:25;;;;;;;;;;;;;;;25.92;58.47;101374.31;5010218;28;2300;-85
2022/10/14 04:13:51;;;;;;;;;;;;;;;25.62;59.31;101370.25;5011924;28;799;-84
2022/10/14 04:16:17;;;;;;;;;;;;;;;25.59;59.69;101376.19;5011831;28;674;-84
2022/10/14 04:18:43;;;;;;;;;;;;;;;25.29;62.53;101371.06;5011838;28;1987;-83
2022/10/14 04:21:11;;;;;;;;;;;;;;;25.76;60.63;101360.97;5011807;28;818;-83
2022/10/14 04:23:37;;;;;;;;;;;;;;;25.87;59.44;101362.28;5011039;28;1243;-83
2022/10/14 04:26:05;;;;;;;;;;;;;;;25.92;59.19;101365.22;5011931;28;811;-83
2022/10/14 04:28:31;;;;;;;;;;;;;;;26.08;58.56;101355.72;5011697;28;726;-83
2022/10/14 04:30:57;;;;;;;;;;;;;;;26.16;58.20;101347.25;5011550;28;900;-83
2022/10/14 04:33:24;;;;;;;;;;;;;;;26.03;57.58;101359.09;5011373;28;1216;-84
2022/10/14 04:35:56;;;;;;;;;;;;;;;25.91;58.81;101353.38;5011814;28;898;-83
2022/10/14 04:38:22;;;;;;;;;;;;;;;26.23;57.24;101350.81;5011512;28;569;-83
2022/10/14 04:40:48;;;;;;;;;;;;;;;25.72;58.31;101356.97;5011488;28;1898;-83
2022/10/14 04:43:14;;;;;;;;;;;;;;;26.06;57.61;101350.44;5026359;28;1245;-83
2022/10/14 04:45:41;;;;;;;;;;;;;;;25.85;58.38;101354.22;5026249;28;881;-84
2022/10/14 04:48:06;;;;;;;;;;;;;;;25.93;58.98;101355.91;5011130;28;828;-83
2022/10/14 04:50:32;;;;;;;;;;;;;;;25.75;59.74;101345.56;5025486;28;798;-83
2022/10/14 04:52:58;;;;;;;;;;;;;;;25.67;59.61;101352.09;5010353;28;1206;-84
2022/10/14 04:55:24;;;;;;;;;;;;;;;25.48;61.40;101357.56;5011654;28;749;-83
2022/10/14 04:57:50;;;;;;;;;;;;;;;25.70;59.77;101357.19;5012017;28;923;-83
2022/10/14 05:00:17;;;;;;;;;;;;;;;25.59;59.97;101356.94;5011764;28;1880;-83
2022/10/14 05:02:43;;;;;;;;;;;;;;;25.67;60.36;101351.25;5010068;28;1220;-83
2022/10/14 05:05:09;;;;;;;;;;;;;;;25.41;60.62;101363.88;5011021;28;914;-83
2022/10/14 05:07:35;;;;;;;;;;;;;;;25.48;60.24;101361.16;5010617;28;768;-83
2022/10/14 05:10:03;;;;;;;;;;;;;;;25.85;59.16;101351.47;5010096;28;828;-84
2022/10/14 05:12:30;;;;;;;;;;;;;;;25.91;58.24;101352.53;5008865;28;2304;-83
2022/10/14 05:14:57;;;;;;;;;;;;;;;26.04;58.27;101349.78;5010475;28;852;-83
2022/10/14 05:17:23;;;;;;;;;;;;;;;25.96;58.11;101345.38;5010623;28;882;-83
2022/10/14 05:19:49;;;;;;;;;;;;;;;26.10;57.80;101337.09;5010819;28;1868;-83
2022/10/14 05:22:15;;;;;;;;;;;;;;;26.06;57.86;101344.94;5009509;28;1208;-83
2022/10/14 05:24:41;;;;;;;;;;;;;;;26.34;56.65;101343.81;5010270;28;755;-83
2022/10/14 05:27:07;;;;;;;;;;;;;;;26.03;57.24;101346.19;5009045;28;761;-83
2022/10/14 05:29:33;;;;;;;;;;;;;;;25.66;59.25;101347.66;5025703;28;917;-83
2022/10/14 05:31:59;;;;;;;;;;;;;;;25.75;58.64;101345.56;5010427;28;1228;-83
2022/10/14 05:34:25;;;;;;;;;;;;;;;25.70;58.91;101346.19;5010965;28;854;-83
2022/10/14 05:36:51;;;;;;;;;;;;;;;25.23;60.93;101343.56;5009507;28;935;-83
2022/10/14 05:39:16;;;;;;;;;;;;;;;25.62;60.11;101349.13;5008899;28;1937;-83
2022/10/14 05:41:43;;;;;;;;;;;;;;;25.39;60.93;101351.44;5018701;28;1220;-83
2022/10/14 05:44:10;;;;;;;;;;;;;;;25.08;61.52;101344.59;5010636;28;729;-83
2022/10/14 05:46:36;;;;;;;;;;;;;;;25.54;60.41;101345.72;5010313;28;936;-83
2022/10/14 05:49:04;;;;;;;;;;;;;;;25.17;61.32;101350.72;5010601;28;906;-83
2022/10/14 05:51:33;;;;;;;;;;;;;;;25.11;62.67;101346.06;5010218;28;1288;-83
2022/10/14 05:53:59;;;;;;;;;;;;;;;24.57;65.69;101341.38;5025894;28;902;-83
2022/10/14 05:56:25;;;;;;;;;;;;;;;25.22;63.80;101341.88;5010936;28;828;-83
2022/10/14 05:58:51;;;;;;;;;;;;;;;25.53;61.26;101339.38;5012511;28;840;-82
2022/10/14 06:01:17;;;;;;;;;;;;;;;25.48;61.40;101349.34;5011278;28;1871;-83
2022/10/14 06:03:43;;;;;;;;;;;;;;;24.67;66.69;101352.81;5010462;28;880;-83
2022/10/14 06:06:13;;;;;;;;;;;;;;;25.43;62.34;101349.94;5025979;28;1036;-83
2022/10/14 06:08:40;;;;;;;;;;;;;;;25.42;61.90;101340.84;5011028;28;884;-83
2022/10/14 06:11:07;;;;;;;;;;;;;;;25.51;61.51;101349.75;5009772;28;1754;-85
2022/10/14 06:13:34;;;;;;;;;;;;;;;25.62;61.45;101349.13;5007923;28;1279;-82
2022/10/14 06:16:05;;;;;;;;;;;;;;;24.98;64.11;101341.38;5025405;28;999;-83
2022/10/14 06:18:32;;;;;;;;;;;;;;;24.01;68.64;101342.28;5026189;28;774;-83
2022/10/14 06:20:58;;;;;;;;;;;;;;;24.76;67.31;101340.63;5010150;28;1957;-82
2022/10/14 06:23:23;;;;;;;;;;;;;;;25.19;63.69;101337.66;5010577;28;1269;-83
2022/10/14 06:25:49;;;;;;;;;;;;;;;25.32;62.72;101336.81;5026075;28;801;-83
2022/10/14 06:28:18;;;;;;;;;;;;;;;25.23;63.77;101338.06;5010649;28;903;-84
2022/10/14 06:30:51;;;;;;;;;;;;;;;25.61;61.46;101339.19;5007541;28;813;-83
2022/10/14 06:33:17;;;;;;;;;;;;;;;25.69;60.40;101333.50;5008356;28;1204;-82
2022/10/14 06:35:44;;;;;;;;;;;;;;;25.66;59.92;101338.53;5010547;28;940;-83
2022/10/14 06:38:10;;;;;;;;;;;;;;;24.96;63.48;101337.13;5009621;28;835;-83
2022/10/14 06:40:36;;;;;;;;;;;;;;;25.07;64.37;101333.78;5009692;28;1866;-83
2022/10/14 06:43:03;;;;;;;;;;;;;;;25.43;62.02;101328.81;5009820;28;1272;-83
2022/10/14 06:45:29;;;;;;;;;;;;;;;25.62;60.92;101329.88;5011129;28;883;-83
2022/10/14 06:47:55;;;;;;;;;;;;;;;24.78;64.32;101333.06;5010550;28;814;-82
2022/10/14 06:50:21;;;;;;;;;;;;;;;25.12;62.49;101325.81;5011292;28;805;-82
2022/10/14 06:52:47;;;;;;;;;;;;;;;25.12;62.29;101331.28;5010048;28;1210;-82
2022/10/14 06:55:14;;;;;;;;;;;;;;;24.39;68.92;101327.38;5025615;28;922;-82
2022/10/14 06:57:40;;;;;;;;;;;;;;;24.71;65.05;101323.94;5010869;28;918;-82
2022/10/14 07:00:07;;;;;;;;;;;;;;;24.91;65.27;101324.03;5010466;28;1958;-82
2022/10/14 07:02:33;;;;;;;;;;;;;;;23.72;71.65;101320.56;5010435;28;1223;-82
2022/10/14 07:04:59;;;;;;;;;;;;;;;24.00;71.15;101320.56;5011571;28;740;-82
2022/10/14 07:07:25;;;;;;;;;;;;;;;23.69;73.31;101324.53;5011096;28;905;-82
2022/10/14 07:09:52;;;;;;;;;;;;;;;23.96;71.62;101317.34;5010971;28;1364;-82
2022/10/14 07:12:18;;;;;;;;;;;;;;;24.50;67.96;101326.81;5008852;28;2067;-83
2022/10/14 07:14:44;;;;;;;;;;;;;;;24.45;67.13;101330.16;5007411;28;904;-83
2022/10/14 07:17:10;;;;;;;;;;;;;;;24.93;62.86;101323.81;5010002;28;856;-82
2022/10/14 07:19:36;;;;;;;;;;;;;;;24.97;62.21;101325.91;5024977;28;1952;-82
2022/10/14 07:22:02;;;;;;;;;;;;;;;24.82;63.96;101323.34;5009408;28;1310;-84
2022/10/14 07:24:28;;;;;;;;;;;;;;;25.04;62.15;101326.00;5010092;28;899;-82
2022/10/14 07:26:54;;;;;;;;;;;;;;;25.33;60.49;101324.78;5009918;28;816;-82
2022/10/14 07:29:20;;;;;;;;;;;;;;;25.48;58.58;101324.59;5010220;28;815;-83
2022/10/14 11:57:55;;;;;;;;;;;;;;;25.71;100.00;101193.16;5032722;27;1781;-82
2022/10/14 12:03:09;;;;;;;;;;;;;;;27.00;100.00;101161.88;5013125;28;1276;-83
2022/10/14 12:05:42;;;;;;;;;;;;;;;27.27;100.00;101157.84;5013195;28;848;-84
2022/10/14 12:08:21;;;;;;;;;;;;;;;27.41;100.00;101155.81;5013553;28;694;-83
2022/10/14 12:10:54;;;;;;;;;;;;;;;27.59;100.00;101155.00;5012827;28;593;-83
2022/10/14 12:13:30;;;;;;;;;;;;;;;27.63;100.00;101146.06;5011612;28;1326;-83
2022/10/14 12:15:59;;;;;;;;;;;;;;;27.71;100.00;101147.69;5022687;28;2314;-83
2022/10/14 12:18:28;;;;;;;;;;;;;;;27.54;100.00;101143.84;5032339;28;799;-83
2022/10/14 12:21:11;;;;;;;;;;;;;;;27.56;100.00;101144.44;5032656;28;803;-82
2022/10/14 12:23:44;;;;;;;;;;;;;;;27.60;100.00;101137.38;5032354;28;1295;-82
2022/10/14 12:26:19;;;;;;;;;;;;;;;27.60;100.00;101129.13;5032565;28;549;-82
2022/10/14 12:28:46;;;;;;;;;;;;;;;27.67;100.00;101130.78;5031906;28;892;-83
2022/10/14 12:31:34;;;;;;;;;;;;;;;27.68;99.75;101120.59;5031871;28;794;-83
2022/10/14 12:34:09;;;;;;;;;;;;;;;27.87;95.84;101124.19;5031961;28;557;-83
2022/10/14 12:36:39;;;;;;;;;;;;;;;27.91;91.99;101112.44;5032044;28;1894;-82
2022/10/14 12:39:17;;;;;;;;;;;;;;;27.73;93.51;101118.00;5031888;28;599;-83
2022/10/14 12:41:54;;;;;;;;;;;;;;;27.79;92.23;101110.69;5031551;28;1279;-83
2022/10/14 12:44:26;;;;;;;;;;;;;;;27.58;92.25;101112.81;5031677;28;556;-83
2022/10/14 12:46:52;;;;;;;;;;;;;;;27.51;93.38;101112.03;5031180;28;616;-84
2022/10/14 12:49:30;;;;;;;;;;;;;;;27.35;93.24;101104.38;5031820;28;830;-89
2022/10/14 12:52:00;;;;;;;;;;;;;;;27.54;90.99;101099.75;5029887;28;1347;-88
2022/10/14 12:54:29;;;;;;;;;;;;;;;27.60;87.64;101096.88;5031799;28;824;-87
2022/10/14 12:57:02;;;;;;;;;;;;;;;27.60;88.57;101099.66;5032325;28;1858;-85
2022/10/14 12:59:38;;;;;;;;;;;;;;;27.61;87.33;101093.06;5032520;28;1022;-85
2022/10/14 13:02:23;;;;;;;;;;;;;;;27.57;86.49;101088.25;5031032;28;1260;-84
2022/10/14 13:04:52;;;;;;;;;;;;;;;27.60;85.42;101085.03;5031210;28;609;-84
2022/10/14 13:07:24;;;;;;;;;;;;;;;27.59;85.15;101083.34;5025460;28;831;-85
2022/10/14 13:10:18;;;;;;;;;;;;;;;27.66;84.77;101082.22;5018234;28;840;-85
2022/10/14 13:12:44;;;;;;;;;;;;;;;27.69;83.70;101072.66;5019776;28;1320;-84
2022/10/14 13:15:34;;;;;;;;;;;;;;;27.75;83.41;101068.16;5014709;28;1833;-84
2022/10/14 13:18:46;;;;;;;;;;;;;;;27.39;86.95;101061.53;4999460;28;545;-84
2022/10/14 13:21:34;;;;;;;;;;;;;;;27.15;90.07;101052.25;4999690;28;841;-84
2022/10/14 13:24:26;;;;;;;;;;;;;;;27.37;88.43;101052.66;4999790;28;573;-84
2022/10/14 13:26:51;;;;;;;;;;;;;;;27.66;83.81;101046.41;4999888;28;541;-84
2022/10/14 13:29:29;;;;;;;;;;;;;;;27.85;81.56;101046.38;4999487;28;851;-84
2022/10/14 13:32:03;;;;;;;;;;;;;;;27.74;83.26;101038.91;4998234;28;1289;-84
2022/10/14 13:34:52;;;;;;;;;;;;;;;27.85;80.72;101035.34;4999375;28;580;-84
2022/10/14 13:37:32;;;;;;;;;;;;;;;27.74;82.93;101036.13;4999087;28;1886;-83
2022/10/14 13:40:14;;;;;;;;;;;;;;;27.56;84.26;101029.53;5000461;28;938;-83
2022/10/14 13:42:40;;;;;;;;;;;;;;;27.51;86.89;101034.03;4998988;28;1244;-84
2022/10/14 13:45:12;;;;;;;;;;;;;;;27.53;86.92;101021.75;4998559;28;796;-83
2022/10/14 13:47:49;;;;;;;;;;;;;;;27.69;85.22;101023.88;4998446;28;517;-83
2022/10/14 13:50:20;;;;;;;;;;;;;;;27.32;87.82;101014.75;4997172;28;549;-83
2022/10/14 13:52:54;;;;;;;;;;;;;;;27.34;89.38;101009.03;4996010;28;1232;-83
2022/10/14 13:55:22;;;;;;;;;;;;;;;27.40;87.29;101014.47;4997511;28;859;-83
2022/10/14 13:58:12;;;;;;;;;;;;;;;27.53;87.18;101007.97;4996575;28;1890;-83
2022/10/14 14:00:44;;;;;;;;;;;;;;;27.38;85.05;101005.59;4997755;28;866;-83
2022/10/14 14:03:34;;;;;;;;;;;;;;;27.55;85.61;101004.97;4997474;28;1244;-83
2022/10/14 14:06:01;;;;;;;;;;;;;;;27.57;84.65;100995.38;4998600;28;561;-83
2022/10/14 14:08:31;;;;;;;;;;;;;;;27.63;84.28;100999.97;4998504;28;803;-83
2022/10/14 14:10:59;;;;;;;;;;;;;;;27.49;84.59;100998.47;4997037;28;839;-83
2022/10/14 14:13:31;;;;;;;;;;;;;;;27.49;84.53;100992.09;4996594;28;1193;-83
2022/10/14 14:15:57;;;;;;;;;;;;;;;27.59;82.79;100989.63;5011356;28;1926;-83
2022/10/14 14:18:24;;;;;;;;;;;;;;;27.70;81.84;100980.63;5017312;28;922;-83
2022/10/14 14:20:58;;;;;;;;;;;;;;;27.69;81.69;100982.53;5016426;28;719;-83
2022/10/14 14:23:26;;;;;;;;;;;;;;;27.74;81.06;100979.09;5016740;28;1268;-83
2022/10/14 14:25:53;;;;;;;;;;;;;;;27.85;81.34;100971.94;5015874;28;811;-83
2022/10/14 14:28:19;;;;;;;;;;;;;;;27.76;81.84;100973.34;5017031;28;823;-83
2022/10/14 14:30:52;;;;;;;;;;;;;;;27.97;80.75;100964.53;5018759;28;862;-83
2022/10/14 14:33:30;;;;;;;;;;;;;;;27.90;81.03;100970.13;5016459;28;1240;-83
2022/10/14 14:35:59;;;;;;;;;;;;;;;28.16;79.56;100952.34;5016642;28;1943;-82
2022/10/14 14:38:36;;;;;;;;;;;;;;;28.00;79.90;100961.31;5016675;28;812;-83
2022/10/14 14:41:13;;;;;;;;;;;;;;;28.08;79.10;100949.94;5017338;28;545;-83
2022/10/14 14:43:39;;;;;;;;;;;;;;;27.99;79.96;100948.59;5016746;28;1359;-83
2022/10/14 14:46:08;;;;;;;;;;;;;;;28.08;79.03;100946.34;5016353;28;825;-83
2022/10/14 14:48:37;;;;;;;;;;;;;;;28.09;78.23;100942.50;5017183;28;928;-83
2022/10/14 14:51:03;;;;;;;;;;;;;;;28.12;77.63;100939.25;5016446;28;887;-84
2022/10/14 14:53:29;;;;;;;;;;;;;;;28.02;78.95;100942.59;5015098;28;1291;-84
2022/10/14 14:56:01;;;;;;;;;;;;;;;28.10;78.15;100931.22;5016428;28;1871;-84
2022/10/14 14:58:36;;;;;;;;;;;;;;;28.16;77.65;100930.28;5016055;28;828;-83
2022/10/14 15:01:05;;;;;;;;;;;;;;;28.16;77.12;100929.44;5017140;28;545;-83
2022/10/14 15:03:45;;;;;;;;;;;;;;;28.01;79.55;100921.63;5015869;28;1197;-83
2022/10/14 15:06:16;;;;;;;;;;;;;;;28.14;78.41;100921.41;5016667;28;557;-84
2022/10/14 15:08:49;;;;;;;;;;;;;;;28.18;77.05;100928.13;5014702;28;875;-84
2022/10/14 15:11:16;;;;;;;;;;;;;;;28.32;76.29;100920.50;5015674;28;1014;-83
2022/10/14 15:13:47;;;;;;;;;;;;;;;28.25;76.75;100917.84;5018007;28;760;-84
2022/10/14 15:16:35;;;;;;;;;;;;;;;28.04;76.84;100912.06;5017442;28;2258;-84
2022/10/14 15:19:36;;;;;;;;;;;;;;;28.16;77.33;100910.97;5015996;28;600;-84
2022/10/14 15:22:19;;;;;;;;;;;;;;;28.13;76.65;100914.22;5079348;28;1204;-84
2022/10/14 15:24:57;;;;;;;;;;;;;;;28.25;75.99;100905.97;5023233;28;1018;-84
2022/10/14 15:27:35;;;;;;;;;;;;;;;28.40;75.34;100914.63;5032532;28;943;-84
2022/10/14 15:30:23;;;;;;;;;;;;;;;28.29;74.95;100904.41;5017592;28;838;-84
2022/10/14 15:32:51;;;;;;;;;;;;;;;28.28;75.65;100909.09;5015623;28;1244;-84
2022/10/14 15:35:20;;;;;;;;;;;;;;;28.41;74.44;100907.19;5015804;28;763;-84
2022/10/14 15:37:47;;;;;;;;;;;;;;;28.52;74.26;100903.59;5015914;28;1894;-84
2022/10/14 15:40:40;;;;;;;;;;;;;;;28.31;75.33;100899.50;5015344;28;909;-82
2022/10/14 15:43:19;;;;;;;;;;;;;;;28.13;76.40;100892.16;5017542;28;1181;-84
2022/10/14 15:47:17;;;;;;;;;;;;;;;28.24;76.28;100890.50;5015443;28;604;-83
2022/10/14 15:48:35;;;;;;;;;;;;;;;28.26;75.42;100886.41;5014758;28;1070;-83
2022/10/14 15:51:01;;;;;;;;;;;;;;;28.26;76.18;100880.88;5014340;28;810;-83
2022/10/14 15:53:28;;;;;;;;;;;;;;;28.25;76.20;100884.72;5013752;28;1279;-83
2022/10/14 15:55:54;;;;;;;;;;;;;;;28.37;75.16;100881.16;5014708;28;853;-83
2022/10/14 15:58:20;;;;;;;;;;;;;;;28.57;73.34;100881.63;5015250;28;1929;-83
2022/10/14 16:00:46;;;;;;;;;;;;;;;28.60;72.46;100881.13;5014555;28;694;-83
2022/10/14 16:03:13;;;;;;;;;;;;;;;28.68;71.35;100871.66;5013327;28;1177;-83
2022/10/14 16:05:39;;;;;;;;;;;;;;;28.75;70.85;100864.91;5015321;28;890;-83
2022/10/14 16:08:13;;;;;;;;;;;;;;;28.69;70.63;100871.41;5014866;28;799;-83
2022/10/14 16:10:42;;;;;;;;;;;;;;;28.47;71.96;100871.19;5013930;28;880;-83
2022/10/14 16:13:09;;;;;;;;;;;;;;;28.46;72.50;100871.44;5014511;28;1177;-84
2022/10/14 16:15:56;;;;;;;;;;;;;;;28.28;72.90;100872.41;5015268;28;2238;-83
2022/10/14 16:18:23;;;;;;;;;;;;;;;28.10;75.64;100859.50;5014830;28;1886;-83
2022/10/14 16:20:50;;;;;;;;;;;;;;;28.45;72.38;100855.97;5014948;28;811;-83
2022/10/14 16:23:18;;;;;;;;;;;;;;;28.22;74.36;100859.50;5014886;28;1177;-83
2022/10/14 16:25:47;;;;;;;;;;;;;;;28.37;74.18;100862.69;5015608;28;783;-83
2022/10/14 16:28:15;;;;;;;;;;;;;;;28.45;71.55;100858.72;5014758;28;799;-83
2022/10/14 16:30:47;;;;;;;;;;;;;;;28.34;73.10;100851.31;5014444;28;835;-83
2022/10/14 16:33:14;;;;;;;;;;;;;;;28.26;73.26;100850.53;5014157;28;1315;-83
2022/10/14 16:35:42;;;;;;;;;;;;;;;28.24;73.59;100847.19;5015563;28;811;-83
2022/10/14 16:38:10;;;;;;;;;;;;;;;28.32;73.75;100846.03;5014734;28;1882;-83
2022/10/14 16:40:36;;;;;;;;;;;;;;;28.56;71.83;100846.84;5015224;28;740;-83
2022/10/14 16:43:03;;;;;;;;;;;;;;;28.66;70.54;100843.44;5015830;28;1185;-83
2022/10/14 16:45:29;;;;;;;;;;;;;;;28.25;73.28;100842.50;5018358;28;915;-83
2022/10/14 16:47:56;;;;;;;;;;;;;;;28.23;73.60;100842.75;5018349;28;928;-83
2022/10/14 16:50:22;;;;;;;;;;;;;;;28.26;73.67;100838.66;5018094;28;834;-84
2022/10/14 16:55:33;;;;;;;;;;;;;;;28.41;73.29;100836.28;5014825;28;1609;-86
2022/10/14 16:57:59;;;;;;;;;;;;;;;28.27;73.62;100841.19;5000455;28;1886;-86
2022/10/14 17:00:25;;;;;;;;;;;;;;;28.53;71.84;100839.03;5007900;28;1687;-85
2022/10/14 17:02:52;;;;;;;;;;;;;;;28.49;71.86;100830.38;5018123;28;1297;-83
2022/10/14 17:05:18;;;;;;;;;;;;;;;28.46;72.67;100841.91;5000756;28;2301;-83
2022/10/14 17:07:45;;;;;;;;;;;;;;;28.47;72.52;100834.47;5017790;28;664;-83
2022/10/14 17:10:11;;;;;;;;;;;;;;;28.39;74.30;100843.13;5018520;28;806;-83
2022/10/14 17:12:37;;;;;;;;;;;;;;;28.63;71.07;100844.78;5017856;28;1236;-85
2022/10/14 17:15:04;;;;;;;;;;;;;;;28.60;71.66;100833.38;5018967;28;810;-84
2022/10/14 17:17:31;;;;;;;;;;;;;;;28.52;72.36;100837.38;5018278;28;1898;-84
2022/10/14 17:19:57;;;;;;;;;;;;;;;28.17;75.36;100838.19;5018928;28;775;-84
2022/10/14 17:22:23;;;;;;;;;;;;;;;28.18;75.92;100831.59;5018367;28;1307;-84
2022/10/14 17:24:49;;;;;;;;;;;;;;;28.13;76.41;100836.16;5017742;28;808;-84
2022/10/14 17:27:18;;;;;;;;;;;;;;;28.05;76.51;100831.00;5017006;28;1182;-83
2022/10/14 17:29:44;;;;;;;;;;;;;;;27.61;79.77;100833.16;5016400;28;1001;-83
2022/10/14 17:32:11;;;;;;;;;;;;;;;27.71;79.75;100830.69;5015436;28;1668;-84
2022/10/14 17:34:36;;;;;;;;;;;;;;;27.48;82.46;100816.84;5015780;28;858;-84
2022/10/14 17:37:04;;;;;;;;;;;;;;;27.57;82.60;100812.66;5015988;28;2307;-84
2022/10/14 17:39:30;;;;;;;;;;;;;;;27.45;83.71;100809.91;5011534;28;2299;-85